sensor_id;sensor_type;location;lat;lon;timestamp;P1;durP1;ratioP1;P2;durP2;ratioP2
16177;SDS011;8195;51.220;9.746;2024-01-30T00:01:28;8.30;;;7.50;;
16177;SDS011;8195;51.220;9.746;2024-01-30T00:05:48;8.50;;;7.70;;
16177;SDS011;8195;51.220;9.746;2024-01-30T00:10:08;9.57;;;7.53;;
16177;SDS011;8195;51.220;9.746;2024-01-30T00:14:29;8.03;;;7.13;;
16177;SDS011;8195;51.220;9.746;2024-01-30T00:18:52;8.20;;;7.40;;
16177;SDS011;8195;51.220;9.746;2024-01-30T00:23:13;8.60;;;7.80;;
16177;SDS011;8195;51.220;9.746;2024-01-30T00:27:33;9.07;;;8.17;;
16177;SDS011;8195;51.220;9.746;2024-01-30T00:31:54;8.63;;;7.73;;
16177;SDS011;8195;51.220;9.746;2024-01-30T00:36:14;8.83;;;8.03;;
16177;SDS011;8195;51.220;9.746;2024-01-30T00:40:34;8.40;;;7.43;;
16177;SDS011;8195;51.220;9.746;2024-01-30T00:44:55;8.80;;;7.90;;
16177;SDS011;8195;51.220;9.746;2024-01-30T00:49:15;8.50;;;7.60;;
16177;SDS011;8195;51.220;9.746;2024-01-30T00:53:35;9.23;;;7.90;;
16177;SDS011;8195;51.220;9.746;2024-01-30T00:57:55;8.60;;;7.70;;
16177;SDS011;8195;51.220;9.746;2024-01-30T01:02:16;8.40;;;7.60;;
16177;SDS011;8195;51.220;9.746;2024-01-30T01:06:36;9.03;;;7.57;;
16177;SDS011;8195;51.220;9.746;2024-01-30T01:10:56;8.30;;;7.50;;
16177;SDS011;8195;51.220;9.746;2024-01-30T01:15:17;8.53;;;7.73;;
16177;SDS011;8195;51.220;9.746;2024-01-30T01:19:37;8.70;;;7.80;;
16177;SDS011;8195;51.220;9.746;2024-01-30T01:23:57;9.03;;;8.13;;
16177;SDS011;8195;51.220;9.746;2024-01-30T01:28:19;8.23;;;7.43;;
16177;SDS011;8195;51.220;9.746;2024-01-30T01:32:39;8.80;;;7.90;;
16177;SDS011;8195;51.220;9.746;2024-01-30T01:36:59;8.53;;;7.77;;
16177;SDS011;8195;51.220;9.746;2024-01-30T01:41:19;8.87;;;8.00;;
16177;SDS011;8195;51.220;9.746;2024-01-30T01:45:40;9.07;;;8.20;;
16177;SDS011;8195;51.220;9.746;2024-01-30T01:50:00;9.07;;;8.27;;
16177;SDS011;8195;51.220;9.746;2024-01-30T01:54:21;10.23;;;9.23;;
16177;SDS011;8195;51.220;9.746;2024-01-30T01:58:41;10.00;;;9.00;;
16177;SDS011;8195;51.220;9.746;2024-01-30T02:03:02;9.90;;;8.87;;
16177;SDS011;8195;51.220;9.746;2024-01-30T02:07:22;9.33;;;8.37;;
16177;SDS011;8195;51.220;9.746;2024-01-30T02:11:43;9.53;;;8.63;;
16177;SDS011;8195;51.220;9.746;2024-01-30T02:16:03;8.70;;;8.00;;
16177;SDS011;8195;51.220;9.746;2024-01-30T02:20:24;9.13;;;8.23;;
16177;SDS011;8195;51.220;9.746;2024-01-30T02:24:45;9.67;;;8.13;;
16177;SDS011;8195;51.220;9.746;2024-01-30T02:29:05;9.97;;;8.50;;
16177;SDS011;8195;51.220;9.746;2024-01-30T02:33:25;8.93;;;8.10;;
16177;SDS011;8195;51.220;9.746;2024-01-30T02:37:46;9.60;;;8.63;;
16177;SDS011;8195;51.220;9.746;2024-01-30T02:42:06;10.47;;;9.47;;
16177;SDS011;8195;51.220;9.746;2024-01-30T02:46:26;10.07;;;8.60;;
16177;SDS011;8195;51.220;9.746;2024-01-30T02:50:47;9.93;;;8.97;;
16177;SDS011;8195;51.220;9.746;2024-01-30T02:55:07;9.33;;;8.30;;
16177;SDS011;8195;51.220;9.746;2024-01-30T02:59:27;9.67;;;8.70;;
16177;SDS011;8195;51.220;9.746;2024-01-30T03:03:48;9.33;;;8.43;;
16177;SDS011;8195;51.220;9.746;2024-01-30T03:08:08;12.97;;;8.27;;
16177;SDS011;8195;51.220;9.746;2024-01-30T03:12:28;9.30;;;7.93;;
16177;SDS011;8195;51.220;9.746;2024-01-30T03:16:49;9.23;;;8.33;;
16177;SDS011;8195;51.220;9.746;2024-01-30T03:21:09;9.47;;;8.57;;
16177;SDS011;8195;51.220;9.746;2024-01-30T03:25:29;10.77;;;9.23;;
16177;SDS011;8195;51.220;9.746;2024-01-30T03:29:50;10.17;;;8.70;;
16177;SDS011;8195;51.220;9.746;2024-01-30T03:34:10;8.80;;;7.90;;
16177;SDS011;8195;51.220;9.746;2024-01-30T03:38:30;9.47;;;8.57;;
16177;SDS011;8195;51.220;9.746;2024-01-30T03:42:51;8.87;;;7.97;;
16177;SDS011;8195;51.220;9.746;2024-01-30T03:47:11;9.33;;;8.43;;
16177;SDS011;8195;51.220;9.746;2024-01-30T03:51:31;11.10;;;8.30;;
16177;SDS011;8195;51.220;9.746;2024-01-30T03:55:52;9.03;;;8.23;;
16177;SDS011;8195;51.220;9.746;2024-01-30T04:00:12;9.80;;;8.80;;
16177;SDS011;8195;51.220;9.746;2024-01-30T04:04:33;10.00;;;9.03;;
16177;SDS011;8195;51.220;9.746;2024-01-30T04:08:53;9.20;;;8.40;;
16177;SDS011;8195;51.220;9.746;2024-01-30T04:13:13;9.40;;;8.50;;
16177;SDS011;8195;51.220;9.746;2024-01-30T04:17:34;9.23;;;8.37;;
16177;SDS011;8195;51.220;9.746;2024-01-30T04:21:54;8.30;;;7.50;;
16177;SDS011;8195;51.220;9.746;2024-01-30T04:26:14;9.53;;;8.53;;
16177;SDS011;8195;51.220;9.746;2024-01-30T04:30:35;9.17;;;8.27;;
16177;SDS011;8195;51.220;9.746;2024-01-30T04:34:55;9.20;;;8.30;;
16177;SDS011;8195;51.220;9.746;2024-01-30T04:39:15;8.90;;;8.00;;
16177;SDS011;8195;51.220;9.746;2024-01-30T04:43:36;9.43;;;7.70;;
16177;SDS011;8195;51.220;9.746;2024-01-30T04:47:56;9.83;;;8.83;;
16177;SDS011;8195;51.220;9.746;2024-01-30T04:52:16;9.70;;;8.70;;
16177;SDS011;8195;51.220;9.746;2024-01-30T04:56:37;11.20;;;8.40;;
16177;SDS011;8195;51.220;9.746;2024-01-30T05:00:57;8.90;;;7.67;;
16177;SDS011;8195;51.220;9.746;2024-01-30T05:05:17;9.57;;;8.50;;
16177;SDS011;8195;51.220;9.746;2024-01-30T05:09:38;8.93;;;8.07;;
16177;SDS011;8195;51.220;9.746;2024-01-30T05:13:58;8.90;;;8.00;;
16177;SDS011;8195;51.220;9.746;2024-01-30T05:18:18;8.60;;;7.87;;
16177;SDS011;8195;51.220;9.746;2024-01-30T05:22:39;8.97;;;8.07;;
16177;SDS011;8195;51.220;9.746;2024-01-30T05:26:59;8.57;;;7.77;;
16177;SDS011;8195;51.220;9.746;2024-01-30T05:31:19;8.87;;;8.17;;
16177;SDS011;8195;51.220;9.746;2024-01-30T05:35:40;9.93;;;8.10;;
16177;SDS011;8195;51.220;9.746;2024-01-30T05:40:00;9.53;;;8.00;;
16177;SDS011;8195;51.220;9.746;2024-01-30T05:44:20;8.63;;;7.67;;
16177;SDS011;8195;51.220;9.746;2024-01-30T05:48:41;8.73;;;7.83;;
16177;SDS011;8195;51.220;9.746;2024-01-30T05:53:01;8.47;;;7.77;;
16177;SDS011;8195;51.220;9.746;2024-01-30T05:57:21;9.10;;;8.07;;
16177;SDS011;8195;51.220;9.746;2024-01-30T06:01:45;8.63;;;7.90;;
16177;SDS011;8195;51.220;9.746;2024-01-30T06:06:09;9.13;;;8.23;;
16177;SDS011;8195;51.220;9.746;2024-01-30T06:10:29;9.27;;;8.37;;
16177;SDS011;8195;51.220;9.746;2024-01-30T06:14:49;9.07;;;8.20;;
16177;SDS011;8195;51.220;9.746;2024-01-30T06:19:09;8.87;;;8.03;;
16177;SDS011;8195;51.220;9.746;2024-01-30T06:23:30;8.73;;;7.80;;
16177;SDS011;8195;51.220;9.746;2024-01-30T06:27:50;8.57;;;7.70;;
16177;SDS011;8195;51.220;9.746;2024-01-30T06:32:10;8.80;;;7.87;;
16177;SDS011;8195;51.220;9.746;2024-01-30T06:36:31;9.93;;;8.93;;
16177;SDS011;8195;51.220;9.746;2024-01-30T06:40:51;8.67;;;7.83;;
16177;SDS011;8195;51.220;9.746;2024-01-30T06:45:11;9.30;;;8.30;;
16177;SDS011;8195;51.220;9.746;2024-01-30T06:49:32;9.10;;;8.17;;
16177;SDS011;8195;51.220;9.746;2024-01-30T06:53:52;10.40;;;8.40;;
16177;SDS011;8195;51.220;9.746;2024-01-30T06:58:12;10.80;;;8.37;;
16177;SDS011;8195;51.220;9.746;2024-01-30T07:02:33;9.20;;;8.40;;
16177;SDS011;8195;51.220;9.746;2024-01-30T07:06:53;9.50;;;8.50;;
16177;SDS011;8195;51.220;9.746;2024-01-30T07:11:20;10.23;;;8.53;;
16177;SDS011;8195;51.220;9.746;2024-01-30T07:15:40;10.23;;;8.93;;
16177;SDS011;8195;51.220;9.746;2024-01-30T07:20:01;9.53;;;8.63;;
16177;SDS011;8195;51.220;9.746;2024-01-30T07:24:21;9.07;;;8.17;;
16177;SDS011;8195;51.220;9.746;2024-01-30T07:28:42;9.40;;;8.50;;
16177;SDS011;8195;51.220;9.746;2024-01-30T07:33:02;9.33;;;8.43;;
16177;SDS011;8195;51.220;9.746;2024-01-30T07:37:22;9.77;;;8.83;;
16177;SDS011;8195;51.220;9.746;2024-01-30T07:41:43;11.00;;;9.43;;
16177;SDS011;8195;51.220;9.746;2024-01-30T07:46:03;9.77;;;8.63;;
16177;SDS011;8195;51.220;9.746;2024-01-30T07:50:23;9.63;;;8.53;;
16177;SDS011;8195;51.220;9.746;2024-01-30T07:54:44;9.20;;;8.40;;
16177;SDS011;8195;51.220;9.746;2024-01-30T07:59:04;9.80;;;8.90;;
16177;SDS011;8195;51.220;9.746;2024-01-30T08:03:24;10.13;;;9.13;;
16177;SDS011;8195;51.220;9.746;2024-01-30T08:07:45;10.03;;;9.13;;
16177;SDS011;8195;51.220;9.746;2024-01-30T08:12:05;10.83;;;9.57;;
16177;SDS011;8195;51.220;9.746;2024-01-30T08:16:25;10.73;;;9.67;;
16177;SDS011;8195;51.220;9.746;2024-01-30T08:20:46;10.10;;;9.10;;
16177;SDS011;8195;51.220;9.746;2024-01-30T08:25:06;10.23;;;9.23;;
16177;SDS011;8195;51.220;9.746;2024-01-30T08:29:27;10.07;;;9.17;;
16177;SDS011;8195;51.220;9.746;2024-01-30T08:33:47;13.03;;;9.90;;
16177;SDS011;8195;51.220;9.746;2024-01-30T08:38:07;10.57;;;9.30;;
16177;SDS011;8195;51.220;9.746;2024-01-30T08:42:28;10.90;;;9.90;;
16177;SDS011;8195;51.220;9.746;2024-01-30T08:46:48;10.87;;;9.77;;
16177;SDS011;8195;51.220;9.746;2024-01-30T08:51:08;10.37;;;9.27;;
16177;SDS011;8195;51.220;9.746;2024-01-30T08:55:29;11.13;;;9.37;;
16177;SDS011;8195;51.220;9.746;2024-01-30T08:59:49;10.70;;;9.60;;
16177;SDS011;8195;51.220;9.746;2024-01-30T09:04:09;11.00;;;10.00;;
16177;SDS011;8195;51.220;9.746;2024-01-30T09:08:30;10.87;;;9.87;;
16177;SDS011;8195;51.220;9.746;2024-01-30T09:12:50;10.80;;;9.80;;
16177;SDS011;8195;51.220;9.746;2024-01-30T09:17:10;11.07;;;9.93;;
16177;SDS011;8195;51.220;9.746;2024-01-30T09:21:31;11.23;;;10.10;;
16177;SDS011;8195;51.220;9.746;2024-01-30T09:25:51;11.20;;;10.10;;
16177;SDS011;8195;51.220;9.746;2024-01-30T09:30:11;10.07;;;9.17;;
16177;SDS011;8195;51.220;9.746;2024-01-30T09:34:32;11.93;;;9.30;;
16177;SDS011;8195;51.220;9.746;2024-01-30T09:38:52;10.80;;;9.70;;
16177;SDS011;8195;51.220;9.746;2024-01-30T09:43:13;12.43;;;10.77;;
16177;SDS011;8195;51.220;9.746;2024-01-30T09:47:40;11.23;;;10.23;;
16177;SDS011;8195;51.220;9.746;2024-01-30T09:52:02;10.37;;;9.37;;
16177;SDS011;8195;51.220;9.746;2024-01-30T09:56:23;11.40;;;10.20;;
16177;SDS011;8195;51.220;9.746;2024-01-30T10:00:43;10.60;;;9.60;;
16177;SDS011;8195;51.220;9.746;2024-01-30T10:05:03;10.80;;;9.77;;
16177;SDS011;8195;51.220;9.746;2024-01-30T10:09:24;11.60;;;10.40;;
16177;SDS011;8195;51.220;9.746;2024-01-30T10:13:44;11.07;;;10.07;;
16177;SDS011;8195;51.220;9.746;2024-01-30T10:18:04;10.07;;;9.17;;
16177;SDS011;8195;51.220;9.746;2024-01-30T10:22:25;10.90;;;9.90;;
16177;SDS011;8195;51.220;9.746;2024-01-30T10:26:46;12.20;;;11.00;;
16177;SDS011;8195;51.220;9.746;2024-01-30T10:31:06;10.07;;;9.07;;
16177;SDS011;8195;51.220;9.746;2024-01-30T10:35:26;10.87;;;9.87;;
16177;SDS011;8195;51.220;9.746;2024-01-30T10:39:47;11.33;;;9.90;;
16177;SDS011;8195;51.220;9.746;2024-01-30T10:44:10;10.40;;;9.40;;
16177;SDS011;8195;51.220;9.746;2024-01-30T10:48:31;10.30;;;9.30;;
16177;SDS011;8195;51.220;9.746;2024-01-30T10:52:52;10.50;;;9.50;;
16177;SDS011;8195;51.220;9.746;2024-01-30T10:57:14;10.67;;;9.77;;
16177;SDS011;8195;51.220;9.746;2024-01-30T11:01:35;10.37;;;9.47;;
16177;SDS011;8195;51.220;9.746;2024-01-30T11:05:58;10.87;;;9.43;;
16177;SDS011;8195;51.220;9.746;2024-01-30T11:10:20;10.87;;;9.87;;
16177;SDS011;8195;51.220;9.746;2024-01-30T11:14:40;10.60;;;9.60;;
16177;SDS011;8195;51.220;9.746;2024-01-30T11:19:00;11.00;;;9.87;;
16177;SDS011;8195;51.220;9.746;2024-01-30T11:23:21;11.20;;;10.17;;
16177;SDS011;8195;51.220;9.746;2024-01-30T11:27:42;11.93;;;10.40;;
16177;SDS011;8195;51.220;9.746;2024-01-30T11:32:03;10.80;;;9.80;;
16177;SDS011;8195;51.220;9.746;2024-01-30T11:36:25;10.53;;;9.60;;
16177;SDS011;8195;51.220;9.746;2024-01-30T11:40:46;11.57;;;10.27;;
16177;SDS011;8195;51.220;9.746;2024-01-30T11:45:07;11.17;;;10.07;;
16177;SDS011;8195;51.220;9.746;2024-01-30T11:49:28;10.43;;;9.43;;
16177;SDS011;8195;51.220;9.746;2024-01-30T11:53:49;10.73;;;9.63;;
16177;SDS011;8195;51.220;9.746;2024-01-30T11:58:10;10.73;;;9.63;;
16177;SDS011;8195;51.220;9.746;2024-01-30T12:02:30;9.83;;;8.93;;
16177;SDS011;8195;51.220;9.746;2024-01-30T12:06:51;11.13;;;9.70;;
16177;SDS011;8195;51.220;9.746;2024-01-30T12:11:11;10.43;;;9.20;;
16177;SDS011;8195;51.220;9.746;2024-01-30T12:15:31;10.17;;;9.17;;
16177;SDS011;8195;51.220;9.746;2024-01-30T12:20:02;11.20;;;8.87;;
16177;SDS011;8195;51.220;9.746;2024-01-30T12:24:29;9.87;;;8.93;;
16177;SDS011;8195;51.220;9.746;2024-01-30T12:28:49;9.93;;;9.03;;
16177;SDS011;8195;51.220;9.746;2024-01-30T12:33:15;9.13;;;8.33;;
16177;SDS011;8195;51.220;9.746;2024-01-30T12:37:36;10.20;;;9.23;;
16177;SDS011;8195;51.220;9.746;2024-01-30T12:41:57;9.73;;;8.83;;
16177;SDS011;8195;51.220;9.746;2024-01-30T12:46:17;9.90;;;8.90;;
16177;SDS011;8195;51.220;9.746;2024-01-30T12:50:37;9.80;;;8.80;;
16177;SDS011;8195;51.220;9.746;2024-01-30T12:54:58;8.97;;;8.13;;
16177;SDS011;8195;51.220;9.746;2024-01-30T12:59:18;10.27;;;9.37;;
16177;SDS011;8195;51.220;9.746;2024-01-30T13:03:38;10.00;;;8.67;;
16177;SDS011;8195;51.220;9.746;2024-01-30T13:07:59;9.60;;;8.70;;
16177;SDS011;8195;51.220;9.746;2024-01-30T13:12:19;10.17;;;9.27;;
16177;SDS011;8195;51.220;9.746;2024-01-30T13:16:39;9.93;;;8.93;;
16177;SDS011;8195;51.220;9.746;2024-01-30T13:21:00;9.63;;;8.73;;
16177;SDS011;8195;51.220;9.746;2024-01-30T13:25:20;9.40;;;8.60;;
16177;SDS011;8195;51.220;9.746;2024-01-30T13:29:40;9.40;;;8.60;;
16177;SDS011;8195;51.220;9.746;2024-01-30T13:34:01;9.10;;;8.20;;
16177;SDS011;8195;51.220;9.746;2024-01-30T13:38:21;8.70;;;7.90;;
16177;SDS011;8195;51.220;9.746;2024-01-30T13:42:41;9.40;;;8.50;;
16177;SDS011;8195;51.220;9.746;2024-01-30T13:47:02;10.03;;;9.03;;
16177;SDS011;8195;51.220;9.746;2024-01-30T13:51:22;10.00;;;9.00;;
16177;SDS011;8195;51.220;9.746;2024-01-30T13:55:42;9.07;;;8.23;;
16177;SDS011;8195;51.220;9.746;2024-01-30T14:00:03;8.97;;;8.13;;
16177;SDS011;8195;51.220;9.746;2024-01-30T14:04:23;9.17;;;8.37;;
16177;SDS011;8195;51.220;9.746;2024-01-30T14:08:44;9.27;;;8.43;;
16177;SDS011;8195;51.220;9.746;2024-01-30T14:13:04;9.53;;;8.53;;
16177;SDS011;8195;51.220;9.746;2024-01-30T14:17:24;9.37;;;8.47;;
16177;SDS011;8195;51.220;9.746;2024-01-30T14:21:45;9.37;;;8.33;;
16177;SDS011;8195;51.220;9.746;2024-01-30T14:26:05;9.00;;;8.10;;
16177;SDS011;8195;51.220;9.746;2024-01-30T14:30:25;9.20;;;8.40;;
16177;SDS011;8195;51.220;9.746;2024-01-30T14:34:45;9.53;;;8.53;;
16177;SDS011;8195;51.220;9.746;2024-01-30T14:39:06;9.10;;;8.30;;
16177;SDS011;8195;51.220;9.746;2024-01-30T14:43:26;10.83;;;8.13;;
16177;SDS011;8195;51.220;9.746;2024-01-30T14:47:46;9.03;;;8.13;;
16177;SDS011;8195;51.220;9.746;2024-01-30T14:52:07;9.30;;;8.40;;
16177;SDS011;8195;51.220;9.746;2024-01-30T14:56:27;9.63;;;8.63;;
16177;SDS011;8195;51.220;9.746;2024-01-30T15:00:47;9.47;;;8.30;;
16177;SDS011;8195;51.220;9.746;2024-01-30T15:05:08;9.27;;;8.33;;
16177;SDS011;8195;51.220;9.746;2024-01-30T15:09:28;9.03;;;8.23;;
16177;SDS011;8195;51.220;9.746;2024-01-30T15:13:48;9.30;;;8.40;;
16177;SDS011;8195;51.220;9.746;2024-01-30T15:18:09;9.90;;;9.03;;
16177;SDS011;8195;51.220;9.746;2024-01-30T15:22:29;10.33;;;9.30;;
16177;SDS011;8195;51.220;9.746;2024-01-30T15:26:50;9.73;;;8.73;;
16177;SDS011;8195;51.220;9.746;2024-01-30T15:31:11;10.23;;;9.23;;
16177;SDS011;8195;51.220;9.746;2024-01-30T15:35:31;9.50;;;8.70;;
16177;SDS011;8195;51.220;9.746;2024-01-30T15:39:51;11.77;;;9.73;;
16177;SDS011;8195;51.220;9.746;2024-01-30T15:44:12;8.77;;;7.97;;
16177;SDS011;8195;51.220;9.746;2024-01-30T15:48:32;9.37;;;8.57;;
16177;SDS011;8195;51.220;9.746;2024-01-30T15:52:52;10.87;;;9.73;;
16177;SDS011;8195;51.220;9.746;2024-01-30T15:57:13;10.47;;;9.37;;
16177;SDS011;8195;51.220;9.746;2024-01-30T16:01:33;11.17;;;9.97;;
16177;SDS011;8195;51.220;9.746;2024-01-30T16:05:53;13.07;;;9.70;;
16177;SDS011;8195;51.220;9.746;2024-01-30T16:10:14;11.30;;;9.60;;
16177;SDS011;8195;51.220;9.746;2024-01-30T16:14:34;9.43;;;8.37;;
16177;SDS011;8195;51.220;9.746;2024-01-30T16:18:54;9.90;;;8.90;;
16177;SDS011;8195;51.220;9.746;2024-01-30T16:23:15;10.50;;;9.50;;
16177;SDS011;8195;51.220;9.746;2024-01-30T16:27:35;10.27;;;9.00;;
16177;SDS011;8195;51.220;9.746;2024-01-30T16:31:55;10.20;;;9.20;;
16177;SDS011;8195;51.220;9.746;2024-01-30T16:36:16;11.57;;;10.33;;
16177;SDS011;8195;51.220;9.746;2024-01-30T16:40:36;12.30;;;11.00;;
16177;SDS011;8195;51.220;9.746;2024-01-30T16:44:56;11.73;;;10.53;;
16177;SDS011;8195;51.220;9.746;2024-01-30T16:49:17;13.27;;;11.30;;
16177;SDS011;8195;51.220;9.746;2024-01-30T16:53:37;12.07;;;10.77;;
16177;SDS011;8195;51.220;9.746;2024-01-30T16:57:57;12.20;;;11.03;;
16177;SDS011;8195;51.220;9.746;2024-01-30T17:02:18;12.00;;;10.73;;
16177;SDS011;8195;51.220;9.746;2024-01-30T17:06:38;11.63;;;10.53;;
16177;SDS011;8195;51.220;9.746;2024-01-30T17:10:58;12.83;;;11.63;;
16177;SDS011;8195;51.220;9.746;2024-01-30T17:15:19;11.80;;;10.60;;
16177;SDS011;8195;51.220;9.746;2024-01-30T17:19:39;12.83;;;11.63;;
16177;SDS011;8195;51.220;9.746;2024-01-30T17:24:00;14.33;;;12.93;;
16177;SDS011;8195;51.220;9.746;2024-01-30T17:28:20;13.43;;;11.43;;
16177;SDS011;8195;51.220;9.746;2024-01-30T17:32:40;13.93;;;12.30;;
16177;SDS011;8195;51.220;9.746;2024-01-30T17:37:01;14.10;;;12.60;;
16177;SDS011;8195;51.220;9.746;2024-01-30T17:41:21;13.57;;;12.27;;
16177;SDS011;8195;51.220;9.746;2024-01-30T17:45:41;13.60;;;12.17;;
16177;SDS011;8195;51.220;9.746;2024-01-30T17:50:02;15.07;;;13.30;;
16177;SDS011;8195;51.220;9.746;2024-01-30T17:54:22;14.07;;;12.57;;
16177;SDS011;8195;51.220;9.746;2024-01-30T17:58:43;14.33;;;12.90;;
16177;SDS011;8195;51.220;9.746;2024-01-30T18:03:03;15.27;;;13.70;;
16177;SDS011;8195;51.220;9.746;2024-01-30T18:07:24;17.90;;;13.37;;
16177;SDS011;8195;51.220;9.746;2024-01-30T18:11:44;15.07;;;13.53;;
16177;SDS011;8195;51.220;9.746;2024-01-30T18:16:04;15.47;;;13.93;;
16177;SDS011;8195;51.220;9.746;2024-01-30T18:20:25;14.10;;;12.90;;
16177;SDS011;8195;51.220;9.746;2024-01-30T18:24:45;14.17;;;12.67;;
16177;SDS011;8195;51.220;9.746;2024-01-30T18:29:05;14.17;;;12.77;;
16177;SDS011;8195;51.220;9.746;2024-01-30T18:33:26;13.53;;;12.23;;
16177;SDS011;8195;51.220;9.746;2024-01-30T18:37:46;14.07;;;12.57;;
16177;SDS011;8195;51.220;9.746;2024-01-30T18:42:06;15.07;;;13.27;;
16177;SDS011;8195;51.220;9.746;2024-01-30T18:46:27;15.40;;;13.80;;
16177;SDS011;8195;51.220;9.746;2024-01-30T18:50:47;15.20;;;13.37;;
16177;SDS011;8195;51.220;9.746;2024-01-30T18:55:07;15.00;;;13.60;;
16177;SDS011;8195;51.220;9.746;2024-01-30T18:59:29;15.53;;;13.90;;
16177;SDS011;8195;51.220;9.746;2024-01-30T19:03:49;16.53;;;14.80;;
16177;SDS011;8195;51.220;9.746;2024-01-30T19:08:10;16.20;;;13.80;;
16177;SDS011;8195;51.220;9.746;2024-01-30T19:12:30;16.00;;;13.63;;
16177;SDS011;8195;51.220;9.746;2024-01-30T19:16:51;15.87;;;14.23;;
16177;SDS011;8195;51.220;9.746;2024-01-30T19:21:11;15.80;;;14.10;;
16177;SDS011;8195;51.220;9.746;2024-01-30T19:25:31;15.77;;;14.27;;
16177;SDS011;8195;51.220;9.746;2024-01-30T19:29:51;15.90;;;14.30;;
16177;SDS011;8195;51.220;9.746;2024-01-30T19:34:12;18.27;;;15.83;;
16177;SDS011;8195;51.220;9.746;2024-01-30T19:38:32;17.20;;;15.40;;
16177;SDS011;8195;51.220;9.746;2024-01-30T19:42:52;16.93;;;15.03;;
16177;SDS011;8195;51.220;9.746;2024-01-30T19:47:13;18.20;;;16.17;;
16177;SDS011;8195;51.220;9.746;2024-01-30T19:51:33;18.20;;;15.73;;
16177;SDS011;8195;51.220;9.746;2024-01-30T19:55:53;17.77;;;15.97;;
16177;SDS011;8195;51.220;9.746;2024-01-30T20:00:14;17.33;;;15.50;;
16177;SDS011;8195;51.220;9.746;2024-01-30T20:04:35;17.43;;;15.47;;
16177;SDS011;8195;51.220;9.746;2024-01-30T20:08:55;18.40;;;15.93;;
16177;SDS011;8195;51.220;9.746;2024-01-30T20:13:15;17.67;;;15.70;;
16177;SDS011;8195;51.220;9.746;2024-01-30T20:17:36;18.63;;;16.13;;
16177;SDS011;8195;51.220;9.746;2024-01-30T20:21:56;18.83;;;16.13;;
16177;SDS011;8195;51.220;9.746;2024-01-30T20:26:16;18.53;;;16.53;;
16177;SDS011;8195;51.220;9.746;2024-01-30T20:30:36;17.93;;;16.13;;
16177;SDS011;8195;51.220;9.746;2024-01-30T20:34:57;18.37;;;16.00;;
16177;SDS011;8195;51.220;9.746;2024-01-30T20:39:17;17.90;;;16.10;;
16177;SDS011;8195;51.220;9.746;2024-01-30T20:43:38;18.97;;;16.57;;
16177;SDS011;8195;51.220;9.746;2024-01-30T20:47:58;19.63;;;17.60;;
16177;SDS011;8195;51.220;9.746;2024-01-30T20:52:18;19.23;;;17.40;;
16177;SDS011;8195;51.220;9.746;2024-01-30T20:56:39;20.23;;;17.90;;
16177;SDS011;8195;51.220;9.746;2024-01-30T21:00:59;20.63;;;18.60;;
16177;SDS011;8195;51.220;9.746;2024-01-30T21:05:19;20.50;;;18.23;;
16177;SDS011;8195;51.220;9.746;2024-01-30T21:09:40;20.60;;;18.50;;
16177;SDS011;8195;51.220;9.746;2024-01-30T21:14:00;20.37;;;18.17;;
16177;SDS011;8195;51.220;9.746;2024-01-30T21:18:20;22.53;;;20.13;;
16177;SDS011;8195;51.220;9.746;2024-01-30T21:22:41;22.37;;;19.50;;
16177;SDS011;8195;51.220;9.746;2024-01-30T21:27:01;23.57;;;21.13;;
16177;SDS011;8195;51.220;9.746;2024-01-30T21:31:21;23.77;;;21.13;;
16177;SDS011;8195;51.220;9.746;2024-01-30T21:35:42;22.50;;;20.20;;
16177;SDS011;8195;51.220;9.746;2024-01-30T21:40:02;24.00;;;20.47;;
16177;SDS011;8195;51.220;9.746;2024-01-30T21:44:23;25.43;;;22.93;;
16177;SDS011;8195;51.220;9.746;2024-01-30T21:48:43;23.73;;;21.23;;
16177;SDS011;8195;51.220;9.746;2024-01-30T21:53:03;24.90;;;20.93;;
16177;SDS011;8195;51.220;9.746;2024-01-30T21:57:24;23.57;;;21.07;;
16177;SDS011;8195;51.220;9.746;2024-01-30T22:01:44;24.30;;;21.80;;
16177;SDS011;8195;51.220;9.746;2024-01-30T22:06:04;23.23;;;20.73;;
16177;SDS011;8195;51.220;9.746;2024-01-30T22:10:25;24.47;;;21.60;;
16177;SDS011;8195;51.220;9.746;2024-01-30T22:14:46;23.87;;;21.37;;
16177;SDS011;8195;51.220;9.746;2024-01-30T22:19:06;23.67;;;21.27;;
16177;SDS011;8195;51.220;9.746;2024-01-30T22:23:26;24.67;;;21.37;;
16177;SDS011;8195;51.220;9.746;2024-01-30T22:27:47;22.60;;;19.33;;
16177;SDS011;8195;51.220;9.746;2024-01-30T22:32:07;21.00;;;18.93;;
16177;SDS011;8195;51.220;9.746;2024-01-30T22:36:27;23.73;;;20.00;;
16177;SDS011;8195;51.220;9.746;2024-01-30T22:40:48;21.83;;;19.43;;
16177;SDS011;8195;51.220;9.746;2024-01-30T22:45:08;21.10;;;19.00;;
16177;SDS011;8195;51.220;9.746;2024-01-30T22:49:29;20.23;;;17.73;;
16177;SDS011;8195;51.220;9.746;2024-01-30T22:53:49;20.30;;;17.13;;
16177;SDS011;8195;51.220;9.746;2024-01-30T22:58:10;18.20;;;16.40;;
16177;SDS011;8195;51.220;9.746;2024-01-30T23:02:30;20.90;;;16.63;;
16177;SDS011;8195;51.220;9.746;2024-01-30T23:06:50;17.43;;;15.67;;
16177;SDS011;8195;51.220;9.746;2024-01-30T23:11:11;17.40;;;15.60;;
16177;SDS011;8195;51.220;9.746;2024-01-30T23:15:32;20.03;;;15.27;;
16177;SDS011;8195;51.220;9.746;2024-01-30T23:19:52;14.03;;;12.60;;
16177;SDS011;8195;51.220;9.746;2024-01-30T23:24:12;14.70;;;13.07;;
16177;SDS011;8195;51.220;9.746;2024-01-30T23:28:33;14.53;;;13.13;;
16177;SDS011;8195;51.220;9.746;2024-01-30T23:32:53;14.57;;;13.07;;
16177;SDS011;8195;51.220;9.746;2024-01-30T23:37:13;14.93;;;12.73;;
16177;SDS011;8195;51.220;9.746;2024-01-30T23:41:34;13.33;;;12.13;;
16177;SDS011;8195;51.220;9.746;2024-01-30T23:45:54;14.07;;;12.30;;
16177;SDS011;8195;51.220;9.746;2024-01-30T23:50:14;12.53;;;11.33;;
16177;SDS011;8195;51.220;9.746;2024-01-30T23:54:34;11.80;;;10.60;;
16177;SDS011;8195;51.220;9.746;2024-01-30T23:58:55;10.87;;;9.80;;
